Time;durP1;ratioP1;P1;durP2;ratioP2;P2;SDS_P1;SDS_P2;PMS_P1;PMS_P2;Temp;Humidity;BMP_temperature;BMP_pressure;BME280_temperature;BME280_humidity;BME280_pressure;Samples;Min_cycle;Max_cycle;Signal;HPM_P1;HPM_P2
2023/07/07 00:01:42;;;;;;;9.47;5.70;;;18.00;14.90;;;;;;5075222;28;20477;-67
2023/07/07 00:04:08;;;;;;;9.10;5.13;;;18.00;15.20;;;;;;5074284;28;20474;-66
2023/07/07 00:06:35;;;;;;;9.33;5.70;;;18.00;15.30;;;;;;5057014;28;20468;-67
2023/07/07 00:09:03;;;;;;;9.53;5.80;;;18.00;15.50;;;;;;5053773;28;20457;-67
2023/07/07 00:11:29;;;;;;;9.60;5.73;;;17.90;15.60;;;;;;5053256;28;20852;-67
2023/07/07 00:13:57;;;;;;;10.60;6.47;;;17.90;16.10;;;;;;5049992;28;20784;-67
2023/07/07 00:16:27;;;;;;;8.80;5.77;;;17.80;16.10;;;;;;5050791;28;20464;-67
2023/07/07 00:18:54;;;;;;;10.10;6.20;;;17.70;16.60;;;;;;5052410;28;20498;-67
2023/07/07 00:21:24;;;;;;;13.93;5.90;;;17.60;16.40;;;;;;5054159;28;20468;-67
2023/07/07 00:23:53;;;;;;;10.00;6.50;;;17.60;16.70;;;;;;5051343;28;20493;-66
2023/07/07 00:26:21;;;;;;;11.53;7.57;;;17.60;16.70;;;;;;5052321;28;20543;-67
2023/07/07 00:28:48;;;;;;;10.00;6.57;;;17.50;17.20;;;;;;5055979;28;20484;-68
2023/07/07 00:31:16;;;;;;;10.27;7.43;;;17.50;16.60;;;;;;5054812;28;20477;-67
2023/07/07 00:33:43;;;;;;;9.90;6.13;;;17.50;17.00;;;;;;5051234;28;20481;-67
2023/07/07 00:36:10;;;;;;;9.60;6.20;;;17.40;17.10;;;;;;5052848;28;20461;-67
2023/07/07 00:38:37;;;;;;;11.40;6.30;;;17.40;17.10;;;;;;5047147;28;20466;-67
2023/07/07 00:41:05;;;;;;;11.20;7.10;;;17.30;17.40;;;;;;5050144;28;20457;-66
2023/07/07 00:43:33;;;;;;;11.10;6.43;;;17.30;17.30;;;;;;5049468;28;20482;-67
2023/07/07 00:46:00;;;;;;;10.10;6.57;;;17.30;17.30;;;;;;5049316;28;20486;-67
2023/07/07 00:48:32;;;;;;;10.80;6.23;;;17.30;17.20;;;;;;5050135;28;20466;-67
2023/07/07 00:51:04;;;;;;;11.60;7.07;;;17.30;17.70;;;;;;5051085;28;20473;-68
2023/07/07 00:53:32;;;;;;;9.70;6.37;;;17.30;17.20;;;;;;5047241;28;20527;-66
2023/07/07 00:56:02;;;;;;;11.13;6.30;;;17.20;17.50;;;;;;5049654;28;20466;-67
2023/07/07 00:58:30;;;;;;;9.07;6.10;;;17.20;17.60;;;;;;5048053;28;20466;-67
2023/07/07 01:01:01;;;;;;;11.83;6.70;;;17.20;17.50;;;;;;5049053;28;20872;-67
2023/07/07 01:03:37;;;;;;;10.10;6.00;;;17.10;17.30;;;;;;5045050;28;20478;-67
2023/07/07 01:06:07;;;;;;;9.30;6.10;;;17.10;17.50;;;;;;5048038;28;20485;-66
2023/07/07 01:08:35;;;;;;;9.70;6.03;;;17.10;17.70;;;;;;5043027;28;20504;-68
2023/07/07 01:11:01;;;;;;;10.10;5.97;;;17.10;17.70;;;;;;5047483;28;20927;-67
2023/07/07 01:13:28;;;;;;;9.70;5.63;;;17.10;17.70;;;;;;5048918;28;20877;-67
2023/07/07 01:16:03;;;;;;;11.50;6.40;;;17.00;17.80;;;;;;5044879;28;20470;-66
2023/07/07 01:18:38;;;;;;;11.83;6.00;;;17.00;17.60;;;;;;5049962;28;20815;-67
2023/07/07 01:21:12;;;;;;;16.93;7.13;;;17.00;17.30;;;;;;5048449;28;20470;-67
2023/07/07 01:24:18;;;;;;;9.60;6.70;;;17.00;17.30;;;;;;5043837;28;20574;-66
2023/07/07 01:27:11;;;;;;;11.97;7.17;;;17.00;17.60;;;;;;5022801;28;20536;-66
2023/07/07 01:30:05;;;;;;;9.83;5.67;;;17.00;17.70;;;;;;5048592;28;20486;-66
2023/07/07 01:32:36;;;;;;;9.73;5.60;;;16.90;17.70;;;;;;5047158;28;20502;-67
2023/07/07 01:35:09;;;;;;;12.10;6.97;;;16.90;17.40;;;;;;5047060;28;20486;-68
2023/07/07 01:37:35;;;;;;;9.00;5.73;;;16.90;17.20;;;;;;5049615;28;20477;-67
2023/07/07 01:40:03;;;;;;;10.90;6.10;;;16.80;17.40;;;;;;5049709;28;20454;-67
2023/07/07 01:42:38;;;;;;;9.73;6.07;;;16.80;17.20;;;;;;5047569;28;20524;-67
2023/07/07 01:45:12;;;;;;;11.93;5.90;;;16.80;17.20;;;;;;5047931;28;20488;-66
2023/07/07 01:47:49;;;;;;;12.47;6.20;;;16.70;17.30;;;;;;5047393;28;20461;-67
2023/07/07 01:50:20;;;;;;;13.43;8.07;;;16.80;17.10;;;;;;5046245;28;20977;-67
2023/07/07 01:52:52;;;;;;;10.83;7.27;;;16.70;16.90;;;;;;5048937;28;20466;-67
2023/07/07 01:55:22;;;;;;;10.77;7.20;;;16.70;17.00;;;;;;5046828;28;20534;-67
2023/07/07 01:57:53;;;;;;;12.83;6.70;;;16.70;16.90;;;;;;5044945;28;20485;-66
2023/07/07 02:00:22;;;;;;;12.70;7.20;;;16.70;17.10;;;;;;5048176;28;21011;-66
2023/07/07 02:02:52;;;;;;;10.87;5.87;;;16.70;16.80;;;;;;5049437;28;20462;-67
2023/07/07 02:05:19;;;;;;;10.33;6.10;;;16.60;16.60;;;;;;5045407;28;20819;-66
2023/07/07 02:07:46;;;;;;;9.83;5.77;;;16.60;16.50;;;;;;5047289;28;20477;-66
2023/07/07 02:10:13;;;;;;;10.77;5.73;;;16.60;16.60;;;;;;5048732;28;20465;-66
2023/07/07 02:12:39;;;;;;;10.33;5.10;;;16.60;16.70;;;;;;5048334;28;20466;-67
2023/07/07 02:15:07;;;;;;;11.53;6.63;;;16.60;16.80;;;;;;5048079;28;20497;-67
2023/07/07 02:17:34;;;;;;;13.10;5.77;;;16.60;17.00;;;;;;5048653;28;20458;-66
2023/07/07 02:20:03;;;;;;;10.87;6.53;;;16.60;16.70;;;;;;5049368;28;20457;-65
2023/07/07 02:22:31;;;;;;;12.60;6.87;;;16.50;17.00;;;;;;5043245;28;20842;-68
2023/07/07 02:24:58;;;;;;;9.90;6.00;;;16.50;17.10;;;;;;5045059;28;20489;-67
2023/07/07 02:27:24;;;;;;;12.00;7.17;;;16.50;17.30;;;;;;5048519;28;20455;-67
2023/07/07 02:29:51;;;;;;;14.87;7.33;;;16.40;17.40;;;;;;5048964;28;20831;-67
2023/07/07 02:32:18;;;;;;;11.73;7.17;;;16.40;17.20;;;;;;5046928;28;20485;-67
2023/07/07 02:34:47;;;;;;;12.90;8.30;;;16.40;17.30;;;;;;5047960;28;20478;-67
2023/07/07 02:37:15;;;;;;;10.80;7.03;;;16.30;17.50;;;;;;5047446;28;20465;-67
2023/07/07 02:39:44;;;;;;;10.60;6.80;;;16.30;17.60;;;;;;5047045;28;20462;-66
2023/07/07 02:42:11;;;;;;;10.97;6.40;;;16.20;17.40;;;;;;5047445;28;20465;-67
2023/07/07 02:44:38;;;;;;;12.80;7.27;;;16.20;17.50;;;;;;5045935;28;20490;-66
2023/07/07 02:47:05;;;;;;;10.87;7.40;;;16.20;17.60;;;;;;5047891;28;20454;-67
2023/07/07 02:49:32;;;;;;;11.67;6.20;;;16.20;17.80;;;;;;5046268;28;20469;-67
2023/07/07 02:51:59;;;;;;;11.47;7.17;;;16.20;18.30;;;;;;5047402;28;20470;-66
2023/07/07 02:54:27;;;;;;;11.77;6.67;;;16.20;17.80;;;;;;5047819;28;20570;-66
2023/07/07 02:56:54;;;;;;;9.80;5.30;;;16.10;17.90;;;;;;5048234;28;20486;-66
2023/07/07 02:59:21;;;;;;;11.43;6.80;;;16.00;18.00;;;;;;5045195;28;20474;-66
2023/07/07 03:01:48;;;;;;;9.60;6.10;;;16.00;18.10;;;;;;5045329;28;20861;-66
2023/07/07 03:04:15;;;;;;;12.20;6.10;;;15.90;18.10;;;;;;5042829;28;20497;-66
2023/07/07 03:06:42;;;;;;;12.13;5.87;;;15.90;18.40;;;;;;5047183;28;20560;-66
2023/07/07 03:09:09;;;;;;;11.20;6.23;;;15.90;18.40;;;;;;5048095;28;21018;-66
2023/07/07 03:11:37;;;;;;;9.93;5.57;;;15.80;18.60;;;;;;5046315;28;20465;-66
2023/07/07 03:14:05;;;;;;;9.43;5.37;;;15.70;18.80;;;;;;5043188;28;20865;-67
2023/07/07 03:16:32;;;;;;;12.00;6.33;;;15.70;18.80;;;;;;5047059;28;20466;-67
2023/07/07 03:19:01;;;;;;;10.47;5.90;;;15.60;19.20;;;;;;5049564;28;20481;-66
2023/07/07 03:21:28;;;;;;;11.23;5.87;;;15.60;19.00;;;;;;5056396;28;20474;-67
2023/07/07 03:23:56;;;;;;;11.63;6.07;;;15.60;19.10;;;;;;5059326;28;20482;-65
2023/07/07 03:26:25;;;;;;;12.00;6.00;;;15.60;19.10;;;;;;5051767;28;20463;-68
2023/07/07 03:28:53;;;;;;;59.17;9.40;;;15.60;19.20;;;;;;5048103;28;20458;-66
2023/07/07 03:31:23;;;;;;;10.80;5.60;;;15.60;19.80;;;;;;5041766;28;20485;-67
2023/07/07 03:33:52;;;;;;;9.43;5.67;;;15.60;19.40;;;;;;5046167;28;21026;-67
2023/07/07 03:36:21;;;;;;;9.43;5.00;;;15.60;19.20;;;;;;5046591;28;20509;-67
2023/07/07 03:38:48;;;;;;;9.57;5.77;;;15.60;19.20;;;;;;5046979;28;20454;-67
2023/07/07 03:41:18;;;;;;;11.50;6.00;;;15.60;19.50;;;;;;5047642;28;20466;-68
2023/07/07 03:43:45;;;;;;;10.77;5.80;;;15.60;19.20;;;;;;5047960;28;20492;-67
2023/07/07 03:46:14;;;;;;;9.07;5.50;;;15.60;19.10;;;;;;5047466;28;20482;-67
2023/07/07 03:48:41;;;;;;;9.23;5.30;;;15.60;19.10;;;;;;5047198;28;20830;-66
2023/07/07 03:51:08;;;;;;;11.50;5.70;;;15.60;19.20;;;;;;5047132;28;20461;-67
2023/07/07 03:53:34;;;;;;;10.03;5.50;;;15.60;19.40;;;;;;5044921;28;20978;-66
2023/07/07 03:56:01;;;;;;;13.80;6.83;;;15.60;19.60;;;;;;5047918;28;20488;-66
2023/07/07 03:58:28;;;;;;;10.57;5.50;;;15.60;19.80;;;;;;5047931;28;20458;-66
2023/07/07 04:00:55;;;;;;;14.93;5.90;;;15.60;19.90;;;;;;5046450;28;20845;-67
2023/07/07 04:03:24;;;;;;;12.30;7.00;;;15.60;19.80;;;;;;5046032;28;20485;-66
2023/07/07 04:05:51;;;;;;;9.20;5.30;;;15.60;19.60;;;;;;5047008;28;20458;-66
2023/07/07 04:08:22;;;;;;;9.60;6.57;;;15.70;19.70;;;;;;5048425;28;20477;-66
2023/07/07 04:10:59;;;;;;;13.33;6.33;;;15.70;19.60;;;;;;5047841;28;20821;-67
2023/07/07 04:13:26;;;;;;;10.53;6.23;;;15.70;19.70;;;;;;5048068;28;21017;-67
2023/07/07 04:16:00;;;;;;;15.80;6.57;;;15.70;19.60;;;;;;5051030;28;20466;-66
2023/07/07 04:18:29;;;;;;;9.00;6.07;;;15.80;20.00;;;;;;5050629;28;20980;-66
2023/07/07 04:20:59;;;;;;;10.57;5.93;;;15.80;20.10;;;;;;5048453;28;20457;-67
2023/07/07 04:23:26;;;;;;;9.33;5.47;;;15.70;20.40;;;;;;5047513;28;20513;-66
2023/07/07 04:25:53;;;;;;;10.40;6.33;;;15.70;20.10;;;;;;5048709;28;20847;-66
2023/07/07 04:28:20;;;;;;;16.73;6.57;;;15.80;20.10;;;;;;5049580;28;20461;-67
2023/07/07 04:30:51;;;;;;;11.97;6.20;;;15.80;19.90;;;;;;5049475;28;20474;-66
2023/07/07 04:33:18;;;;;;;10.73;5.80;;;15.90;19.80;;;;;;5048963;28;20496;-66
2023/07/07 04:35:50;;;;;;;9.50;5.70;;;16.10;19.70;;;;;;5047628;28;20978;-67
2023/07/07 04:38:18;;;;;;;8.50;5.50;;;17.10;19.40;;;;;;5048639;28;20466;-67
2023/07/07 04:40:45;;;;;;;10.60;5.50;;;18.40;15.50;;;;;;5049710;28;20457;-67
2023/07/07 04:43:12;;;;;;;11.47;7.07;;;19.60;12.60;;;;;;5046147;28;20997;-67
2023/07/07 04:45:39;;;;;;;10.83;5.00;;;20.70;10.50;;;;;;5047945;28;20458;-67
2023/07/07 04:48:06;;;;;;;12.13;5.30;;;21.50;9.00;;;;;;5050298;28;20937;-67
2023/07/07 04:50:33;;;;;;;8.53;4.90;;;22.30;7.80;;;;;;5049449;28;20458;-67
2023/07/07 04:53:01;;;;;;;10.60;5.80;;;23.10;5.90;;;;;;5048481;28;20489;-67
2023/07/07 04:55:28;;;;;;;11.87;5.80;;;23.60;4.70;;;;;;5047274;28;20911;-68
2023/07/07 04:57:55;;;;;;;9.20;5.80;;;23.60;3.60;;;;;;5047836;28;20451;-67
2023/07/07 05:00:22;;;;;;;11.30;6.07;;;23.10;4.00;;;;;;5050280;28;20453;-68
2023/07/07 05:02:49;;;;;;;11.50;5.77;;;22.90;5.30;;;;;;5042807;28;20466;-69
2023/07/07 05:05:15;;;;;;;12.80;5.57;;;23.80;3.70;;;;;;5043618;28;20546;-68
2023/07/07 05:07:42;;;;;;;9.80;5.50;;;24.80;1.40;;;;;;5042961;28;20462;-69
2023/07/07 05:10:10;;;;;;;10.73;5.40;;;25.60;1.00;;;;;;5045637;28;20466;-64
2023/07/07 05:12:37;;;;;;;10.80;5.07;;;26.30;1.00;;;;;;5038699;28;20558;-64
2023/07/07 05:15:05;;;;;;;11.10;6.03;;;27.00;1.00;;;;;;5047196;28;20482;-65
2023/07/07 05:17:31;;;;;;;11.10;5.80;;;27.40;1.00;;;;;;5049920;28;20489;-65
2023/07/07 05:19:58;;;;;;;11.20;6.43;;;27.80;1.00;;;;;;5046218;28;20473;-65
2023/07/07 05:22:25;;;;;;;8.80;5.33;;;28.30;1.00;;;;;;5046273;28;20473;-65
2023/07/07 05:24:51;;;;;;;11.23;5.03;;;28.80;1.00;;;;;;5042172;28;20489;-65
2023/07/07 05:27:19;;;;;;;9.30;5.67;;;29.40;1.00;;;;;;5047192;28;20935;-65
2023/07/07 05:29:46;;;;;;;8.97;5.40;;;30.10;1.00;;;;;;5046425;28;21189;-66
2023/07/07 05:32:13;;;;;;;9.63;5.13;;;30.90;1.00;;;;;;5045531;28;20474;-65
2023/07/07 05:34:40;;;;;;;10.60;5.63;;;31.60;1.00;;;;;;5044667;28;20485;-66
2023/07/07 05:37:06;;;;;;;9.90;5.40;;;32.30;1.00;;;;;;5048825;28;20858;-65
2023/07/07 05:39:33;;;;;;;10.63;5.63;;;32.60;1.00;;;;;;5046777;28;20465;-67
2023/07/07 05:42:00;;;;;;;18.43;6.67;;;32.70;1.00;;;;;;5042614;28;20483;-65
2023/07/07 05:44:28;;;;;;;11.23;6.10;;;32.90;1.00;;;;;;5042924;28;20807;-64
2023/07/07 05:46:55;;;;;;;7.67;4.90;;;33.10;1.00;;;;;;5056870;22;20494;-65
2023/07/07 05:49:21;;;;;;;8.43;5.80;;;33.60;1.00;;;;;;5039976;28;20469;-65
2023/07/07 05:51:48;;;;;;;9.10;5.13;;;34.00;1.00;;;;;;5040968;28;20478;-65
2023/07/07 05:54:15;;;;;;;9.70;5.60;;;34.40;1.00;;;;;;5029246;28;20609;-66
2023/07/07 05:56:42;;;;;;;7.40;5.50;;;35.00;1.00;;;;;;5025074;28;20848;-64
2023/07/07 05:59:09;;;;;;;8.73;5.73;;;35.80;1.00;;;;;;5027235;28;20840;-63
2023/07/07 06:01:38;;;;;;;7.83;5.23;;;36.60;1.00;;;;;;5023830;28;20483;-63
2023/07/07 06:04:05;;;;;;;8.40;5.20;;;37.00;1.00;;;;;;5022042;28;20487;-64
2023/07/07 06:06:32;;;;;;;8.40;6.33;;;37.50;1.00;;;;;;5023220;28;20466;-64
2023/07/07 06:08:58;;;;;;;7.90;4.83;;;37.90;1.00;;;;;;5028441;28;20471;-64
2023/07/07 06:11:25;;;;;;;7.30;5.00;;;38.30;1.00;;;;;;5020112;28;20466;-63
2023/07/07 06:13:52;;;;;;;8.83;4.87;;;39.00;1.00;;;;;;5018286;28;20482;-63
2023/07/07 06:16:19;;;;;;;8.70;5.30;;;39.70;1.00;;;;;;5025750;28;20487;-63
2023/07/07 06:18:47;;;;;;;8.37;5.60;;;40.20;1.00;;;;;;5028545;28;20490;-64
2023/07/07 06:21:14;;;;;;;9.77;6.27;;;40.80;1.00;;;;;;5026320;28;20479;-64
2023/07/07 06:23:41;;;;;;;9.60;5.30;;;41.40;1.00;;;;;;5022356;28;20490;-64
2023/07/07 06:26:07;;;;;;;8.47;5.50;;;41.70;1.00;;;;;;5027277;28;21025;-63
2023/07/07 06:28:34;;;;;;;10.07;5.43;;;42.20;1.00;;;;;;5026027;28;20458;-64
2023/07/07 06:31:01;;;;;;;7.50;4.90;;;42.70;1.00;;;;;;5025750;28;20475;-63
2023/07/07 06:33:28;;;;;;;7.20;5.80;;;43.30;1.00;;;;;;5024190;28;20581;-64
2023/07/07 06:35:56;;;;;;;8.50;5.50;;;43.80;1.00;;;;;;5020984;28;20474;-63
2023/07/07 06:38:23;;;;;;;6.93;5.20;;;44.40;1.00;;;;;;5025841;28;20489;-64
2023/07/07 06:40:50;;;;;;;6.97;5.50;;;45.00;1.00;;;;;;5020949;28;20467;-65
2023/07/07 06:43:18;;;;;;;9.67;5.90;;;45.60;1.00;;;;;;5022281;28;21006;-66
2023/07/07 06:45:45;;;;;;;11.23;5.70;;;46.10;1.00;;;;;;5021081;28;20529;-66
2023/07/07 06:48:12;;;;;;;11.47;4.80;;;46.50;1.00;;;;;;5022886;28;20513;-66
2023/07/07 06:50:41;;;;;;;9.50;5.77;;;46.90;1.00;;;;;;5025624;28;20846;-66
2023/07/07 06:53:09;;;;;;;8.43;5.17;;;47.30;1.00;;;;;;5021613;28;20901;-65
2023/07/07 06:55:36;;;;;;;7.60;6.20;;;47.80;1.00;;;;;;5023745;28;21147;-66
2023/07/07 06:58:03;;;;;;;7.27;6.03;;;47.90;1.00;;;;;;5023765;28;20479;-65
2023/07/07 07:00:31;;;;;;;8.83;6.47;;;48.20;1.00;;;;;;5021799;28;20463;-67
2023/07/07 07:02:58;;;;;;;7.67;5.30;;;48.10;1.00;;;;;;5022170;28;20478;-64
2023/07/07 07:05:25;;;;;;;8.40;5.90;;;48.10;1.00;;;;;;5023088;28;20470;-64
2023/07/07 07:07:51;;;;;;;8.63;5.50;;;48.20;1.00;;;;;;5029835;28;20450;-65
2023/07/07 07:10:19;;;;;;;8.50;5.60;;;48.40;1.00;;;;;;5025188;28;20471;-65
2023/07/07 07:12:47;;;;;;;8.07;5.37;;;48.40;1.00;;;;;;5026497;28;20461;-64
2023/07/07 07:15:14;;;;;;;7.20;5.80;;;48.50;1.00;;;;;;5028215;28;20513;-65
2023/07/07 07:17:41;;;;;;;10.37;5.47;;;48.70;1.00;;;;;;5025823;28;20478;-65
2023/07/07 07:20:11;;;;;;;6.70;5.20;;;49.10;1.00;;;;;;5023770;28;20491;-64
2023/07/07 07:22:37;;;;;;;9.00;5.73;;;49.50;1.00;;;;;;5023324;28;20467;-64
2023/07/07 07:25:05;;;;;;;7.70;5.43;;;50.30;1.00;;;;;;5023713;28;20485;-64
2023/07/07 07:27:33;;;;;;;8.00;5.37;;;50.60;1.00;;;;;;5021193;28;20834;-64
2023/07/07 07:29:59;;;;;;;8.63;5.93;;;50.90;1.00;;;;;;5021588;28;20470;-65
2023/07/07 07:32:26;;;;;;;8.43;5.67;;;51.10;1.00;;;;;;5026005;28;20481;-64
2023/07/07 07:34:53;;;;;;;10.27;5.13;;;51.00;1.00;;;;;;5023040;28;20887;-65
2023/07/07 07:37:20;;;;;;;9.23;6.00;;;51.10;1.00;;;;;;5025627;28;20474;-65
2023/07/07 07:39:46;;;;;;;8.13;5.50;;;51.70;1.00;;;;;;5026298;28;20463;-65
2023/07/07 07:42:13;;;;;;;7.07;5.60;;;52.30;1.00;;;;;;5026640;28;20467;-65
2023/07/07 07:44:41;;;;;;;7.60;6.10;;;52.40;1.00;;;;;;5020724;28;20489;-65
2023/07/07 07:47:08;;;;;;;7.57;5.57;;;52.60;1.00;;;;;;5024450;28;20486;-65
2023/07/07 07:49:35;;;;;;;7.50;5.50;;;52.90;1.00;;;;;;5029771;28;20458;-65
2023/07/07 07:52:02;;;;;;;8.07;5.70;;;53.30;1.00;;;;;;5028643;28;20470;-65
2023/07/07 07:54:28;;;;;;;7.70;5.50;;;53.80;1.00;;;;;;5027072;28;20486;-67
2023/07/07 07:56:55;;;;;;;8.50;5.70;;;53.90;1.00;;;;;;5024072;28;20469;-67
2023/07/07 07:59:22;;;;;;;7.60;5.67;;;53.80;1.00;;;;;;5028829;28;20470;-67
2023/07/07 08:01:51;;;;;;;7.20;5.53;;;54.00;1.00;;;;;;5029845;28;20478;-68
2023/07/07 08:04:18;;;;;;;6.77;5.43;;;54.10;1.00;;;;;;5026932;28;20844;-68
2023/07/07 08:06:45;;;;;;;6.23;4.80;;;54.50;1.00;;;;;;5030335;28;20504;-68
2023/07/07 08:09:12;;;;;;;8.03;5.43;;;54.90;1.00;;;;;;5027805;28;20475;-68
2023/07/07 08:11:59;;;;;;;6.77;5.37;;;55.40;1.00;;;;;;5024610;28;20967;-67
2023/07/07 08:14:31;;;;;;;5.67;4.60;;;56.00;1.00;;;;;;5028375;28;21017;-67
2023/07/07 08:17:04;;;;;;;7.00;5.57;;;56.40;1.00;;;;;;5027422;28;20549;-67
2023/07/07 08:19:32;;;;;;;6.50;4.60;;;56.50;1.00;;;;;;5031297;28;20203;-67
2023/07/07 08:21:59;;;;;;;13.30;4.87;;;56.30;1.00;;;;;;5025689;28;20492;-68
2023/07/07 08:24:27;;;;;;;6.30;5.07;;;56.30;1.00;;;;;;5030325;28;20263;-68
2023/07/07 08:26:54;;;;;;;6.20;4.83;;;56.20;1.00;;;;;;5023033;28;20224;-67
2023/07/07 08:29:22;;;;;;;7.60;5.00;;;56.10;1.00;;;;;;5028515;28;20676;-67
2023/07/07 08:31:48;;;;;;;5.57;4.87;;;56.30;1.00;;;;;;5025459;28;20226;-67
2023/07/07 08:34:17;;;;;;;7.73;4.57;;;55.90;1.00;;;;;;5028425;28;20587;-64
2023/07/07 08:36:44;;;;;;;6.10;4.73;;;55.20;1.00;;;;;;5028452;28;20562;-65
2023/07/07 08:39:14;;;;;;;6.03;5.00;;;54.70;1.00;;;;;;5026947;28;20469;-64
2023/07/07 08:41:47;;;;;;;6.63;5.67;;;54.40;1.00;;;;;;5026861;28;20462;-65
2023/07/07 08:44:17;;;;;;;7.27;5.10;;;54.30;1.00;;;;;;5027001;28;20486;-64
2023/07/07 08:46:56;;;;;;;7.00;4.90;;;54.50;1.00;;;;;;5026892;28;20820;-65
2023/07/07 08:49:32;;;;;;;6.67;5.03;;;54.60;1.00;;;;;;5026984;28;20463;-64
2023/07/07 08:52:04;;;;;;;8.73;5.20;;;54.30;1.00;;;;;;5024491;28;20464;-64
2023/07/07 08:54:39;;;;;;;8.93;4.87;;;53.50;1.00;;;;;;5019624;28;20482;-65
2023/07/07 08:57:08;;;;;;;6.70;5.30;;;53.20;1.00;;;;;;5025075;28;20458;-64
2023/07/07 08:59:44;;;;;;;6.40;4.83;;;53.10;1.00;;;;;;5025568;28;20483;-64
2023/07/07 09:02:27;;;;;;;9.30;5.50;;;53.10;1.00;;;;;;5025949;28;20479;-64
2023/07/07 09:05:04;;;;;;;6.73;5.37;;;53.10;1.00;;;;;;5024134;28;20478;-64
2023/07/07 09:07:55;;;;;;;6.57;5.23;;;52.40;1.00;;;;;;5026116;28;20478;-64
2023/07/07 09:10:38;;;;;;;8.93;5.63;;;52.20;1.00;;;;;;5027343;28;20466;-64
2023/07/07 09:13:13;;;;;;;8.93;5.87;;;51.60;1.00;;;;;;5025417;28;20478;-65
2023/07/07 09:15:43;;;;;;;8.63;5.90;;;50.80;1.00;;;;;;5023263;28;20477;-67
2023/07/07 09:18:19;;;;;;;9.63;5.53;;;50.60;1.00;;;;;;5025527;28;20470;-67
2023/07/07 09:20:54;;;;;;;6.60;4.80;;;50.70;1.00;;;;;;5024494;28;20465;-67
2023/07/07 09:23:24;;;;;;;8.23;5.10;;;50.80;1.00;;;;;;5022919;28;20899;-67
2023/07/07 09:25:58;;;;;;;6.80;5.37;;;50.60;1.00;;;;;;5023917;28;20463;-66
2023/07/07 09:28:28;;;;;;;8.07;5.93;;;49.80;1.00;;;;;;5022074;28;20479;-67
2023/07/07 09:30:58;;;;;;;8.27;6.20;;;47.70;1.00;;;;;;5022930;28;20552;-66
2023/07/07 09:33:26;;;;;;;8.00;5.63;;;45.20;1.00;;;;;;5022827;28;20498;-67
2023/07/07 09:36:02;;;;;;;8.00;5.93;;;43.70;1.00;;;;;;5020298;28;21366;-68
2023/07/07 09:38:43;;;;;;;7.90;5.67;;;42.30;1.00;;;;;;5025120;28;21196;-67
2023/07/07 09:41:18;;;;;;;8.90;6.30;;;40.80;1.00;;;;;;5021476;28;20467;-66
2023/07/07 09:43:55;;;;;;;7.87;5.70;;;39.80;1.00;;;;;;5022804;28;20853;-66
2023/07/07 09:46:28;;;;;;;8.67;5.87;;;38.60;1.00;;;;;;5022124;28;20463;-67
2023/07/07 09:49:02;;;;;;;8.27;5.70;;;37.10;1.00;;;;;;5022560;28;20537;-67
2023/07/07 09:51:41;;;;;;;8.37;5.83;;;36.00;1.00;;;;;;5018989;28;20473;-67
2023/07/07 09:54:10;;;;;;;8.43;5.60;;;35.20;1.00;;;;;;5024054;28;20501;-67
2023/07/07 09:56:42;;;;;;;10.80;6.07;;;34.60;1.00;;;;;;5022743;28;20474;-68
2023/07/07 09:59:16;;;;;;;8.90;6.67;;;34.00;1.00;;;;;;5025909;28;20471;-67
2023/07/07 10:01:48;;;;;;;9.57;5.47;;;33.40;1.00;;;;;;5019730;28;20475;-67
2023/07/07 10:04:19;;;;;;;10.40;6.23;;;32.90;1.00;;;;;;5022793;28;20947;-66
2023/07/07 10:06:53;;;;;;;10.00;6.03;;;32.40;1.00;;;;;;5024173;28;20559;-66
2023/07/07 10:09:20;;;;;;;9.90;6.03;;;32.00;1.00;;;;;;5014810;28;20482;-66
2023/07/07 10:11:47;;;;;;;8.67;5.93;;;31.90;1.00;;;;;;5006671;28;20471;-68
2023/07/07 10:14:16;;;;;;;9.30;6.63;;;31.50;1.00;;;;;;5020257;28;20488;-68
2023/07/07 10:16:53;;;;;;;9.87;5.90;;;31.20;1.00;;;;;;5017511;28;20477;-67
2023/07/07 10:19:20;;;;;;;10.13;6.13;;;30.90;1.00;;;;;;5021900;28;20462;-67
2023/07/07 10:21:48;;;;;;;10.00;6.03;;;30.80;1.00;;;;;;5019970;28;20463;-67
2023/07/07 10:24:15;;;;;;;10.00;6.67;;;30.50;1.00;;;;;;5021154;28;20537;-67
2023/07/07 10:26:47;;;;;;;10.67;7.00;;;30.20;1.00;;;;;;5019653;28;20471;-67
2023/07/07 10:29:17;;;;;;;10.47;5.83;;;30.10;1.00;;;;;;5019660;28;20479;-67
2023/07/07 10:31:46;;;;;;;11.40;6.50;;;29.80;1.00;;;;;;5016873;28;20518;-67
2023/07/07 10:34:26;;;;;;;10.07;6.30;;;29.80;1.00;;;;;;5013400;28;20573;-67
2023/07/07 10:36:56;;;;;;;8.90;6.10;;;29.70;1.00;;;;;;5021610;28;20459;-67
2023/07/07 10:39:24;;;;;;;10.93;6.50;;;29.60;1.00;;;;;;5020999;28;20459;-67
2023/07/07 10:41:50;;;;;;;11.83;7.17;;;29.50;1.00;;;;;;5016341;28;20567;-67
2023/07/07 10:44:17;;;;;;;9.67;6.00;;;29.50;1.00;;;;;;5021994;28;20478;-67
2023/07/07 10:46:44;;;;;;;10.37;6.57;;;29.50;1.00;;;;;;5015777;28;20467;-67
2023/07/07 10:49:16;;;;;;;15.17;6.70;;;29.50;1.00;;;;;;5021529;28;20482;-68
2023/07/07 10:51:51;;;;;;;10.47;6.30;;;29.50;1.00;;;;;;5019146;28;21292;-68
2023/07/07 10:54:30;;;;;;;10.00;5.87;;;29.50;1.00;;;;;;5023423;28;20872;-67
2023/07/07 10:57:05;;;;;;;10.50;6.70;;;29.40;1.00;;;;;;5018985;28;20462;-68
2023/07/07 10:59:57;;;;;;;12.03;6.70;;;29.30;1.00;;;;;;5021692;28;20478;-67
2023/07/07 11:02:47;;;;;;;10.10;6.43;;;29.10;1.00;;;;;;5018084;28;21003;-67
2023/07/07 11:05:34;;;;;;;9.80;5.90;;;29.10;1.00;;;;;;5019304;28;20463;-67
2023/07/07 11:08:11;;;;;;;11.70;7.17;;;28.90;1.00;;;;;;5021871;28;20495;-67
2023/07/07 11:10:55;;;;;;;10.13;6.00;;;28.80;1.00;;;;;;5012172;28;20462;-67
2023/07/07 11:13:34;;;;;;;10.40;5.70;;;28.90;1.00;;;;;;5016278;28;20481;-67
2023/07/07 11:16:09;;;;;;;10.00;6.17;;;28.90;1.00;;;;;;5021916;28;20466;-65
2023/07/07 11:18:54;;;;;;;10.63;6.30;;;28.90;1.00;;;;;;5019007;28;20472;-66
2023/07/07 11:21:40;;;;;;;9.83;6.10;;;28.90;1.00;;;;;;5015624;28;20469;-66
2023/07/07 11:24:12;;;;;;;13.10;5.77;;;28.90;1.00;;;;;;5021299;28;20980;-66
2023/07/07 11:27:01;;;;;;;10.70;6.30;;;28.90;1.00;;;;;;5018416;28;20939;-66
2023/07/07 11:29:36;;;;;;;10.87;6.90;;;28.80;1.00;;;;;;5020318;28;20506;-66
2023/07/07 11:32:14;;;;;;;9.53;6.10;;;28.70;1.00;;;;;;5022823;28;20477;-66
2023/07/07 11:34:57;;;;;;;10.83;6.70;;;28.70;1.00;;;;;;5024429;28;20489;-66
2023/07/07 11:37:38;;;;;;;9.53;5.90;;;28.70;1.00;;;;;;5025423;28;20459;-66
2023/07/07 11:40:23;;;;;;;8.73;6.07;;;28.80;1.00;;;;;;5023675;28;20804;-66
2023/07/07 11:43:15;;;;;;;10.27;5.53;;;28.70;1.00;;;;;;5019636;28;20459;-66
2023/07/07 11:46:06;;;;;;;12.07;6.30;;;28.80;1.00;;;;;;5020872;28;20462;-66
2023/07/07 11:48:40;;;;;;;10.67;6.70;;;28.80;1.00;;;;;;5025438;28;20491;-66
2023/07/07 11:51:22;;;;;;;12.00;6.40;;;28.70;1.00;;;;;;5023202;28;20470;-66
2023/07/07 11:54:14;;;;;;;8.53;5.80;;;28.70;1.00;;;;;;5024842;28;20466;-66
2023/07/07 11:56:55;;;;;;;10.97;6.27;;;28.70;1.00;;;;;;5025194;28;20474;-66
2023/07/07 11:59:45;;;;;;;9.97;6.00;;;28.70;1.00;;;;;;5024679;28;20482;-66
2023/07/07 12:02:18;;;;;;;10.03;6.53;;;28.60;1.00;;;;;;5022932;28;20577;-67
2023/07/07 12:04:46;;;;;;;10.70;6.53;;;28.60;1.00;;;;;;5020211;28;20475;-65
2023/07/07 12:07:20;;;;;;;13.57;6.50;;;28.60;1.00;;;;;;5021309;28;20474;-66
2023/07/07 12:09:52;;;;;;;11.40;7.00;;;28.50;1.00;;;;;;5025097;28;20885;-66
2023/07/07 12:12:25;;;;;;;9.93;6.20;;;28.50;1.00;;;;;;5021267;28;20451;-66
2023/07/07 12:14:58;;;;;;;9.43;6.13;;;28.50;1.00;;;;;;5023702;28;20562;-65
2023/07/07 12:17:29;;;;;;;10.13;6.23;;;28.60;1.00;;;;;;5026311;28;20543;-66
2023/07/07 12:20:01;;;;;;;10.13;6.60;;;28.60;1.00;;;;;;5023552;28;20458;-66
2023/07/07 12:22:35;;;;;;;12.67;6.83;;;28.60;1.00;;;;;;5023753;28;20481;-67
2023/07/07 12:25:06;;;;;;;14.40;6.83;;;28.50;1.00;;;;;;5023669;28;20612;-66
2023/07/07 12:27:37;;;;;;;11.00;6.80;;;28.50;1.00;;;;;;5022522;28;20501;-66
2023/07/07 12:30:08;;;;;;;10.37;6.37;;;28.50;1.00;;;;;;5024540;28;20486;-66
2023/07/07 12:32:34;;;;;;;10.00;6.50;;;28.50;1.00;;;;;;5025678;28;20554;-66
2023/07/07 12:35:04;;;;;;;10.63;6.60;;;28.50;1.00;;;;;;5027654;28;20506;-66
2023/07/07 12:37:34;;;;;;;10.27;6.83;;;28.40;1.00;;;;;;5028144;28;20953;-66
2023/07/07 12:40:04;;;;;;;10.47;6.53;;;28.40;1.00;;;;;;5025703;28;20467;-66
2023/07/07 12:42:32;;;;;;;10.13;6.23;;;28.40;1.00;;;;;;5026334;28;20463;-66
2023/07/07 12:45:09;;;;;;;10.93;6.37;;;28.50;1.00;;;;;;5026166;28;20482;-66
2023/07/07 12:47:41;;;;;;;9.80;6.10;;;28.50;1.00;;;;;;5025949;28;20467;-67
2023/07/07 12:50:23;;;;;;;10.93;5.43;;;28.50;1.00;;;;;;5029218;28;20925;-66
2023/07/07 12:52:51;;;;;;;12.17;6.00;;;28.50;1.00;;;;;;5025544;28;20547;-66
2023/07/07 12:55:24;;;;;;;9.27;6.27;;;28.50;1.00;;;;;;5025481;28;20458;-66
2023/07/07 12:58:40;;;;;;;10.40;6.00;;;28.50;1.00;;;;;;5025178;28;20455;-67
2023/07/07 13:01:13;;;;;;;10.60;6.13;;;28.60;1.00;;;;;;5025285;28;20514;-67
2023/07/07 13:03:59;;;;;;;9.80;6.50;;;28.60;1.00;;;;;;5043401;22;20486;-67
2023/07/07 13:06:35;;;;;;;15.00;6.50;;;28.60;1.00;;;;;;5064723;28;20465;-66